This is the latest recevied weather packets stored in our database for station/object DK7LH-6. If no packets are shown the sender has not sent any weather packets the latest 10 day(s).
| Time | Temp. | Humidity | Pressure | Rain* | Wind** | Luminosity | Snow |
|---|---|---|---|---|---|---|---|
| 1778427017 | 12.22° C | 75% | 1012.4 hPa | 0 mm | - | 265 W/m² | - |
| 1778426149 | 12.78° C | 74% | 1012.5 hPa | 0 mm | - | 366 W/m² | - |
| 1778425219 | 12.78° C | 74% | 1012.5 hPa | 0 mm | - | 338 W/m² | - |
| 1778424351 | 13.33° C | 73% | 1012.6 hPa | 0 mm | - | 429 W/m² | - |
| 1778423421 | 13.33° C | 76% | 1012.7 hPa | 0 mm | - | 435 W/m² | - |
| 1778421623 | 13.89° C | 76% | 1012.8 hPa | 0 mm | - | 470 W/m² | - |
| 1778420756 | 14.44° C | 75% | 1013 hPa | 0 mm | - | 475 W/m² | - |
| 1778419826 | 14.44° C | 76% | 1013.2 hPa | 0 mm | - | 496 W/m² | - |
| 1778418957 | 14.44° C | 75% | 1013 hPa | 0 mm | - | 510 W/m² | - |
| 1778418027 | 14.44° C | 76% | 1012.8 hPa | 0 mm | - | 452 W/m² | - |
| 1778417159 | 14.44° C | 76% | 1012.8 hPa | 0 mm | - | 235 W/m² | - |
| 1778416229 | 15° C | 73% | 1012.8 hPa | 0 mm | - | 171 W/m² | - |
| 1778415361 | 15° C | 74% | 1012.8 hPa | 0 mm | - | 194 W/m² | - |
| 1778414431 | 15.56° C | 73% | 1012.8 hPa | 0 mm | - | 241 W/m² | - |
| 1778413563 | 15.56° C | 74% | 1013 hPa | 0 mm | - | 443 W/m² | - |
| 1778412633 | 15.56° C | 74% | 1013 hPa | 0 mm | - | 369 W/m² | - |
| 1778411766 | 15.56° C | 75% | 1013 hPa | 0 mm | - | 513 W/m² | - |
| 1778410836 | 16.11° C | 72% | 1013 hPa | 0 mm | - | 324 W/m² | - |
| 1778409967 | 16.11° C | 70% | 1013 hPa | 0 mm | - | 293 W/m² | - |
| 1778409037 | 16.67° C | 69% | 1013 hPa | 0 mm | - | 373 W/m² | - |
| 1778408169 | 16.67° C | 67% | 1013.1 hPa | 0 mm | - | 466 W/m² | - |
| 1778407239 | 16.11° C | 67% | 1013.2 hPa | 0 mm | - | 550 W/m² | - |
| 1778406371 | 15.56° C | 69% | 1013.3 hPa | 0 mm | - | 511 W/m² | - |
| 1778405441 | 15.56° C | 68% | 1013.4 hPa | 0 mm | - | 324 W/m² | - |
| 1778404573 | 15° C | 69% | 1013.4 hPa | 0 mm | - | 346 W/m² | - |
* Rain latest hour (hover to see other rain measurements)
** Current wind speed in m/s (hover to see current wind gust speed)